sensor_id;sensor_type;location;lat;lon;timestamp;P1;durP1;ratioP1;P2;durP2;ratioP2
27572;SDS011;15009;53.082;8.768;2022-08-19T00:01:21;12.55;;;9.18;;
27572;SDS011;15009;53.082;8.768;2022-08-19T00:04:24;15.77;;;9.32;;
27572;SDS011;15009;53.082;8.768;2022-08-19T00:07:32;13.27;;;9.70;;
27572;SDS011;15009;53.082;8.768;2022-08-19T00:10:32;14.20;;;10.38;;
27572;SDS011;15009;53.082;8.768;2022-08-19T00:13:33;17.50;;;11.70;;
27572;SDS011;15009;53.082;8.768;2022-08-19T00:16:34;11.55;;;8.88;;
27572;SDS011;15009;53.082;8.768;2022-08-19T00:19:36;22.08;;;12.10;;
27572;SDS011;15009;53.082;8.768;2022-08-19T00:22:37;15.68;;;10.68;;
27572;SDS011;15009;53.082;8.768;2022-08-19T00:25:39;17.67;;;12.43;;
27572;SDS011;15009;53.082;8.768;2022-08-19T00:28:40;20.42;;;11.32;;
27572;SDS011;15009;53.082;8.768;2022-08-19T00:31:41;22.02;;;13.13;;
27572;SDS011;15009;53.082;8.768;2022-08-19T00:34:42;23.02;;;12.90;;
27572;SDS011;15009;53.082;8.768;2022-08-19T00:37:43;21.42;;;12.52;;
27572;SDS011;15009;53.082;8.768;2022-08-19T00:40:44;21.88;;;12.82;;
27572;SDS011;15009;53.082;8.768;2022-08-19T00:47:10;17.25;;;11.23;;
27572;SDS011;15009;53.082;8.768;2022-08-19T00:50:12;17.25;;;11.10;;
27572;SDS011;15009;53.082;8.768;2022-08-19T00:53:17;21.85;;;12.85;;
27572;SDS011;15009;53.082;8.768;2022-08-19T00:56:20;18.23;;;10.80;;
27572;SDS011;15009;53.082;8.768;2022-08-19T00:59:20;20.13;;;12.30;;
27572;SDS011;15009;53.082;8.768;2022-08-19T01:02:22;17.25;;;11.48;;
27572;SDS011;15009;53.082;8.768;2022-08-19T01:05:24;21.55;;;11.45;;
27572;SDS011;15009;53.082;8.768;2022-08-19T01:08:27;18.08;;;9.93;;
27572;SDS011;15009;53.082;8.768;2022-08-19T01:11:28;18.48;;;10.52;;
27572;SDS011;15009;53.082;8.768;2022-08-19T01:14:31;13.95;;;10.23;;
27572;SDS011;15009;53.082;8.768;2022-08-19T01:17:33;13.27;;;9.75;;
27572;SDS011;15009;53.082;8.768;2022-08-19T01:20:35;17.77;;;11.77;;
27572;SDS011;15009;53.082;8.768;2022-08-19T01:23:36;19.02;;;12.45;;
27572;SDS011;15009;53.082;8.768;2022-08-19T01:26:43;15.38;;;10.52;;
27572;SDS011;15009;53.082;8.768;2022-08-19T01:29:44;19.10;;;11.93;;
27572;SDS011;15009;53.082;8.768;2022-08-19T01:32:45;14.35;;;11.35;;
27572;SDS011;15009;53.082;8.768;2022-08-19T01:35:46;16.80;;;10.75;;
27572;SDS011;15009;53.082;8.768;2022-08-19T01:38:51;18.73;;;11.77;;
27572;SDS011;15009;53.082;8.768;2022-08-19T01:41:52;19.23;;;11.43;;
27572;SDS011;15009;53.082;8.768;2022-08-19T01:44:54;15.65;;;11.90;;
27572;SDS011;15009;53.082;8.768;2022-08-19T01:47:55;19.08;;;11.27;;
27572;SDS011;15009;53.082;8.768;2022-08-19T01:50:56;13.68;;;9.65;;
27572;SDS011;15009;53.082;8.768;2022-08-19T01:53:57;14.75;;;9.75;;
27572;SDS011;15009;53.082;8.768;2022-08-19T01:57:00;14.82;;;10.35;;
27572;SDS011;15009;53.082;8.768;2022-08-19T02:00:05;14.85;;;11.00;;
27572;SDS011;15009;53.082;8.768;2022-08-19T02:03:07;17.67;;;11.10;;
27572;SDS011;15009;53.082;8.768;2022-08-19T02:06:11;17.95;;;12.35;;
27572;SDS011;15009;53.082;8.768;2022-08-19T02:09:11;15.88;;;11.60;;
27572;SDS011;15009;53.082;8.768;2022-08-19T02:12:12;17.17;;;11.88;;
27572;SDS011;15009;53.082;8.768;2022-08-19T02:15:13;16.58;;;10.43;;
27572;SDS011;15009;53.082;8.768;2022-08-19T02:18:13;13.75;;;9.45;;
27572;SDS011;15009;53.082;8.768;2022-08-19T02:21:15;17.63;;;11.63;;
27572;SDS011;15009;53.082;8.768;2022-08-19T02:24:16;13.55;;;9.82;;
27572;SDS011;15009;53.082;8.768;2022-08-19T02:27:16;19.33;;;10.38;;
27572;SDS011;15009;53.082;8.768;2022-08-19T02:30:17;16.10;;;11.13;;
27572;SDS011;15009;53.082;8.768;2022-08-19T02:33:18;15.60;;;11.05;;
27572;SDS011;15009;53.082;8.768;2022-08-19T02:36:19;17.58;;;12.13;;
27572;SDS011;15009;53.082;8.768;2022-08-19T02:39:20;14.80;;;10.73;;
27572;SDS011;15009;53.082;8.768;2022-08-19T02:42:20;16.30;;;12.02;;
27572;SDS011;15009;53.082;8.768;2022-08-19T02:45:21;17.17;;;10.55;;
27572;SDS011;15009;53.082;8.768;2022-08-19T02:48:23;17.17;;;11.37;;
27572;SDS011;15009;53.082;8.768;2022-08-19T02:54:27;11.05;;;8.63;;
27572;SDS011;15009;53.082;8.768;2022-08-19T02:57:29;16.40;;;10.25;;
27572;SDS011;15009;53.082;8.768;2022-08-19T03:00:31;18.75;;;12.30;;
27572;SDS011;15009;53.082;8.768;2022-08-19T03:03:32;14.05;;;10.27;;
27572;SDS011;15009;53.082;8.768;2022-08-19T03:06:35;22.38;;;12.57;;
27572;SDS011;15009;53.082;8.768;2022-08-19T03:09:40;14.80;;;11.07;;
27572;SDS011;15009;53.082;8.768;2022-08-19T03:12:42;16.25;;;11.75;;
27572;SDS011;15009;53.082;8.768;2022-08-19T03:15:43;16.17;;;11.57;;
27572;SDS011;15009;53.082;8.768;2022-08-19T03:18:46;17.15;;;12.00;;
27572;SDS011;15009;53.082;8.768;2022-08-19T03:21:47;15.27;;;11.48;;
27572;SDS011;15009;53.082;8.768;2022-08-19T03:24:47;15.02;;;11.55;;
27572;SDS011;15009;53.082;8.768;2022-08-19T03:27:48;18.00;;;12.38;;
27572;SDS011;15009;53.082;8.768;2022-08-19T03:30:56;18.58;;;14.32;;
27572;SDS011;15009;53.082;8.768;2022-08-19T03:33:58;15.27;;;11.88;;
27572;SDS011;15009;53.082;8.768;2022-08-19T03:37:01;17.40;;;12.55;;
27572;SDS011;15009;53.082;8.768;2022-08-19T03:40:12;15.88;;;11.80;;
27572;SDS011;15009;53.082;8.768;2022-08-19T03:43:12;22.88;;;15.35;;
27572;SDS011;15009;53.082;8.768;2022-08-19T03:46:14;16.60;;;11.63;;
27572;SDS011;15009;53.082;8.768;2022-08-19T03:49:17;18.48;;;12.88;;
27572;SDS011;15009;53.082;8.768;2022-08-19T03:52:18;21.48;;;15.23;;
27572;SDS011;15009;53.082;8.768;2022-08-19T03:55:19;21.65;;;16.08;;
27572;SDS011;15009;53.082;8.768;2022-08-19T03:58:20;23.50;;;14.98;;
27572;SDS011;15009;53.082;8.768;2022-08-19T04:01:22;21.95;;;16.23;;
27572;SDS011;15009;53.082;8.768;2022-08-19T04:04:26;22.65;;;15.75;;
27572;SDS011;15009;53.082;8.768;2022-08-19T04:07:27;20.05;;;13.43;;
27572;SDS011;15009;53.082;8.768;2022-08-19T04:10:28;17.58;;;13.18;;
27572;SDS011;15009;53.082;8.768;2022-08-19T04:13:29;20.42;;;14.43;;
27572;SDS011;15009;53.082;8.768;2022-08-19T04:16:29;20.23;;;13.23;;
27572;SDS011;15009;53.082;8.768;2022-08-19T04:19:30;18.73;;;14.52;;
27572;SDS011;15009;53.082;8.768;2022-08-19T04:22:31;17.00;;;12.95;;
27572;SDS011;15009;53.082;8.768;2022-08-19T04:25:39;20.85;;;14.30;;
27572;SDS011;15009;53.082;8.768;2022-08-19T04:28:43;18.90;;;14.13;;
27572;SDS011;15009;53.082;8.768;2022-08-19T04:31:44;18.92;;;14.02;;
27572;SDS011;15009;53.082;8.768;2022-08-19T04:34:45;16.07;;;12.10;;
27572;SDS011;15009;53.082;8.768;2022-08-19T04:37:46;23.85;;;13.23;;
27572;SDS011;15009;53.082;8.768;2022-08-19T04:40:47;22.73;;;14.27;;
27572;SDS011;15009;53.082;8.768;2022-08-19T04:44:07;20.40;;;13.13;;
27572;SDS011;15009;53.082;8.768;2022-08-19T04:47:08;15.68;;;11.60;;
27572;SDS011;15009;53.082;8.768;2022-08-19T04:50:09;21.95;;;13.52;;
27572;SDS011;15009;53.082;8.768;2022-08-19T04:53:11;15.85;;;11.43;;
27572;SDS011;15009;53.082;8.768;2022-08-19T04:56:15;18.98;;;13.65;;
27572;SDS011;15009;53.082;8.768;2022-08-19T04:59:17;18.13;;;13.38;;
27572;SDS011;15009;53.082;8.768;2022-08-19T05:02:20;24.55;;;15.65;;
27572;SDS011;15009;53.082;8.768;2022-08-19T05:05:23;25.17;;;15.77;;
27572;SDS011;15009;53.082;8.768;2022-08-19T05:08:23;25.77;;;16.23;;
27572;SDS011;15009;53.082;8.768;2022-08-19T05:11:25;27.17;;;15.52;;
27572;SDS011;15009;53.082;8.768;2022-08-19T05:14:28;27.42;;;16.70;;
27572;SDS011;15009;53.082;8.768;2022-08-19T05:17:29;25.48;;;15.93;;
27572;SDS011;15009;53.082;8.768;2022-08-19T05:20:29;30.13;;;18.60;;
27572;SDS011;15009;53.082;8.768;2022-08-19T05:23:48;29.38;;;17.02;;
27572;SDS011;15009;53.082;8.768;2022-08-19T05:26:50;32.67;;;18.98;;
27572;SDS011;15009;53.082;8.768;2022-08-19T05:29:51;34.80;;;19.85;;
27572;SDS011;15009;53.082;8.768;2022-08-19T05:32:52;29.98;;;16.63;;
27572;SDS011;15009;53.082;8.768;2022-08-19T05:35:54;30.63;;;17.45;;
27572;SDS011;15009;53.082;8.768;2022-08-19T05:38:55;32.72;;;19.08;;
27572;SDS011;15009;53.082;8.768;2022-08-19T05:41:57;31.63;;;19.42;;
27572;SDS011;15009;53.082;8.768;2022-08-19T05:45:00;30.02;;;18.70;;
27572;SDS011;15009;53.082;8.768;2022-08-19T05:48:01;30.88;;;18.85;;
27572;SDS011;15009;53.082;8.768;2022-08-19T05:51:05;29.15;;;18.27;;
27572;SDS011;15009;53.082;8.768;2022-08-19T05:54:06;30.02;;;16.40;;
27572;SDS011;15009;53.082;8.768;2022-08-19T05:57:09;32.83;;;17.15;;
27572;SDS011;15009;53.082;8.768;2022-08-19T06:00:10;32.50;;;19.38;;
27572;SDS011;15009;53.082;8.768;2022-08-19T06:03:11;27.92;;;16.38;;
27572;SDS011;15009;53.082;8.768;2022-08-19T06:06:12;29.75;;;17.58;;
27572;SDS011;15009;53.082;8.768;2022-08-19T06:09:14;30.58;;;16.60;;
27572;SDS011;15009;53.082;8.768;2022-08-19T06:12:15;39.58;;;19.05;;
27572;SDS011;15009;53.082;8.768;2022-08-19T06:15:15;34.47;;;17.38;;
27572;SDS011;15009;53.082;8.768;2022-08-19T06:18:16;32.05;;;17.63;;
27572;SDS011;15009;53.082;8.768;2022-08-19T06:24:21;33.97;;;19.52;;
27572;SDS011;15009;53.082;8.768;2022-08-19T06:27:23;43.28;;;19.08;;
27572;SDS011;15009;53.082;8.768;2022-08-19T06:30:24;45.45;;;18.30;;
27572;SDS011;15009;53.082;8.768;2022-08-19T06:33:25;33.50;;;17.00;;
27572;SDS011;15009;53.082;8.768;2022-08-19T06:36:27;33.42;;;18.25;;
27572;SDS011;15009;53.082;8.768;2022-08-19T06:39:36;27.67;;;16.40;;
27572;SDS011;15009;53.082;8.768;2022-08-19T06:42:40;40.35;;;18.65;;
27572;SDS011;15009;53.082;8.768;2022-08-19T06:45:41;41.15;;;19.45;;
27572;SDS011;15009;53.082;8.768;2022-08-19T06:48:42;25.50;;;15.18;;
27572;SDS011;15009;53.082;8.768;2022-08-19T06:51:43;28.43;;;18.10;;
27572;SDS011;15009;53.082;8.768;2022-08-19T06:54:47;26.58;;;15.23;;
27572;SDS011;15009;53.082;8.768;2022-08-19T06:57:48;32.17;;;15.83;;
27572;SDS011;15009;53.082;8.768;2022-08-19T07:00:50;34.72;;;15.35;;
27572;SDS011;15009;53.082;8.768;2022-08-19T07:03:51;29.13;;;14.70;;
27572;SDS011;15009;53.082;8.768;2022-08-19T07:07:04;27.88;;;14.52;;
27572;SDS011;15009;53.082;8.768;2022-08-19T07:10:09;17.70;;;12.43;;
27572;SDS011;15009;53.082;8.768;2022-08-19T07:16:12;19.67;;;11.13;;
27572;SDS011;15009;53.082;8.768;2022-08-19T07:19:14;18.48;;;10.65;;
27572;SDS011;15009;53.082;8.768;2022-08-19T07:22:16;15.20;;;10.68;;
27572;SDS011;15009;53.082;8.768;2022-08-19T07:25:17;17.05;;;10.50;;
27572;SDS011;15009;53.082;8.768;2022-08-19T07:28:20;15.52;;;10.95;;
27572;SDS011;15009;53.082;8.768;2022-08-19T07:31:23;15.07;;;9.65;;
27572;SDS011;15009;53.082;8.768;2022-08-19T07:34:25;15.68;;;9.55;;
27572;SDS011;15009;53.082;8.768;2022-08-19T07:37:27;11.82;;;9.57;;
27572;SDS011;15009;53.082;8.768;2022-08-19T07:40:28;14.68;;;9.25;;
27572;SDS011;15009;53.082;8.768;2022-08-19T07:43:29;16.83;;;9.38;;
27572;SDS011;15009;53.082;8.768;2022-08-19T07:46:34;13.38;;;9.82;;
27572;SDS011;15009;53.082;8.768;2022-08-19T07:49:37;16.17;;;7.38;;
27572;SDS011;15009;53.082;8.768;2022-08-19T07:52:38;8.18;;;5.45;;
27572;SDS011;15009;53.082;8.768;2022-08-19T07:55:39;8.63;;;5.43;;
27572;SDS011;15009;53.082;8.768;2022-08-19T07:58:40;10.43;;;5.65;;
27572;SDS011;15009;53.082;8.768;2022-08-19T08:05:17;7.85;;;4.90;;
27572;SDS011;15009;53.082;8.768;2022-08-19T08:08:37;6.68;;;5.78;;
27572;SDS011;15009;53.082;8.768;2022-08-19T08:12:01;14.98;;;13.10;;
27572;SDS011;15009;53.082;8.768;2022-08-19T08:15:14;6.93;;;4.10;;
27572;SDS011;15009;53.082;8.768;2022-08-19T08:18:16;6.85;;;4.57;;
27572;SDS011;15009;53.082;8.768;2022-08-19T08:24:17;3.30;;;3.00;;
27572;SDS011;15009;53.082;8.768;2022-08-19T08:27:20;6.13;;;3.65;;
27572;SDS011;15009;53.082;8.768;2022-08-19T08:30:22;4.50;;;3.50;;
27572;SDS011;15009;53.082;8.768;2022-08-19T08:33:24;5.80;;;3.50;;
27572;SDS011;15009;53.082;8.768;2022-08-19T08:36:27;7.80;;;4.18;;
27572;SDS011;15009;53.082;8.768;2022-08-19T08:39:28;7.57;;;4.03;;
27572;SDS011;15009;53.082;8.768;2022-08-19T08:42:30;4.07;;;3.30;;
27572;SDS011;15009;53.082;8.768;2022-08-19T08:45:46;4.70;;;3.00;;
27572;SDS011;15009;53.082;8.768;2022-08-19T08:48:54;6.65;;;2.90;;
27572;SDS011;15009;53.082;8.768;2022-08-19T08:52:05;4.57;;;3.10;;
27572;SDS011;15009;53.082;8.768;2022-08-19T08:55:20;5.43;;;3.15;;
27572;SDS011;15009;53.082;8.768;2022-08-19T08:58:26;26.75;;;22.85;;
27572;SDS011;15009;53.082;8.768;2022-08-19T09:01:31;4.75;;;3.13;;
27572;SDS011;15009;53.082;8.768;2022-08-19T09:04:33;16.53;;;12.53;;
27572;SDS011;15009;53.082;8.768;2022-08-19T09:07:44;8.57;;;7.15;;
27572;SDS011;15009;53.082;8.768;2022-08-19T09:11:04;3.65;;;2.72;;
27572;SDS011;15009;53.082;8.768;2022-08-19T09:14:10;5.07;;;3.03;;
27572;SDS011;15009;53.082;8.768;2022-08-19T09:17:35;6.90;;;2.88;;
27572;SDS011;15009;53.082;8.768;2022-08-19T09:20:38;6.18;;;2.17;;
27572;SDS011;15009;53.082;8.768;2022-08-19T09:23:39;5.13;;;2.20;;
27572;SDS011;15009;53.082;8.768;2022-08-19T09:26:40;2.33;;;1.80;;
27572;SDS011;15009;53.082;8.768;2022-08-19T09:29:41;4.22;;;1.92;;
27572;SDS011;15009;53.082;8.768;2022-08-19T09:32:41;13.83;;;9.17;;
27572;SDS011;15009;53.082;8.768;2022-08-19T09:35:42;6.53;;;2.33;;
27572;SDS011;15009;53.082;8.768;2022-08-19T09:38:43;5.07;;;3.73;;
27572;SDS011;15009;53.082;8.768;2022-08-19T09:41:44;4.70;;;2.10;;
27572;SDS011;15009;53.082;8.768;2022-08-19T09:44:45;5.67;;;2.90;;
27572;SDS011;15009;53.082;8.768;2022-08-19T09:47:46;4.00;;;2.53;;
27572;SDS011;15009;53.082;8.768;2022-08-19T09:50:48;4.20;;;1.90;;
27572;SDS011;15009;53.082;8.768;2022-08-19T09:53:51;5.30;;;2.28;;
27572;SDS011;15009;53.082;8.768;2022-08-19T09:56:54;6.43;;;3.47;;
27572;SDS011;15009;53.082;8.768;2022-08-19T09:59:55;4.30;;;2.25;;
27572;SDS011;15009;53.082;8.768;2022-08-19T10:02:56;7.17;;;2.17;;
27572;SDS011;15009;53.082;8.768;2022-08-19T10:05:57;5.07;;;2.40;;
27572;SDS011;15009;53.082;8.768;2022-08-19T10:08:59;7.72;;;2.35;;
27572;SDS011;15009;53.082;8.768;2022-08-19T10:12:03;5.40;;;2.35;;
27572;SDS011;15009;53.082;8.768;2022-08-19T10:15:05;6.25;;;2.30;;
27572;SDS011;15009;53.082;8.768;2022-08-19T10:18:06;4.07;;;2.38;;
27572;SDS011;15009;53.082;8.768;2022-08-19T10:21:12;7.75;;;2.78;;
27572;SDS011;15009;53.082;8.768;2022-08-19T10:24:19;5.57;;;3.42;;
27572;SDS011;15009;53.082;8.768;2022-08-19T10:27:20;4.53;;;2.72;;
27572;SDS011;15009;53.082;8.768;2022-08-19T10:30:21;10.23;;;3.10;;
27572;SDS011;15009;53.082;8.768;2022-08-19T10:33:22;9.33;;;2.37;;
27572;SDS011;15009;53.082;8.768;2022-08-19T10:36:25;9.10;;;2.42;;
27572;SDS011;15009;53.082;8.768;2022-08-19T10:39:35;8.18;;;2.47;;
27572;SDS011;15009;53.082;8.768;2022-08-19T10:42:36;5.35;;;2.20;;
27572;SDS011;15009;53.082;8.768;2022-08-19T10:45:37;3.97;;;2.22;;
27572;SDS011;15009;53.082;8.768;2022-08-19T10:48:37;7.00;;;2.60;;
27572;SDS011;15009;53.082;8.768;2022-08-19T10:51:39;7.47;;;2.40;;
27572;SDS011;15009;53.082;8.768;2022-08-19T10:55:00;5.93;;;2.40;;
27572;SDS011;15009;53.082;8.768;2022-08-19T10:58:21;9.23;;;2.35;;
27572;SDS011;15009;53.082;8.768;2022-08-19T11:01:26;8.52;;;2.30;;
27572;SDS011;15009;53.082;8.768;2022-08-19T11:04:29;5.40;;;2.38;;
27572;SDS011;15009;53.082;8.768;2022-08-19T11:07:31;8.57;;;2.08;;
27572;SDS011;15009;53.082;8.768;2022-08-19T11:10:32;5.80;;;2.20;;
27572;SDS011;15009;53.082;8.768;2022-08-19T11:13:35;8.77;;;2.53;;
27572;SDS011;15009;53.082;8.768;2022-08-19T11:16:38;4.53;;;2.50;;
27572;SDS011;15009;53.082;8.768;2022-08-19T11:23:20;6.30;;;1.90;;
27572;SDS011;15009;53.082;8.768;2022-08-19T11:26:21;4.77;;;1.93;;
27572;SDS011;15009;53.082;8.768;2022-08-19T11:29:23;8.40;;;1.50;;
27572;SDS011;15009;53.082;8.768;2022-08-19T11:32:27;4.22;;;2.00;;
27572;SDS011;15009;53.082;8.768;2022-08-19T11:35:28;6.97;;;3.13;;
27572;SDS011;15009;53.082;8.768;2022-08-19T11:38:28;7.17;;;2.07;;
27572;SDS011;15009;53.082;8.768;2022-08-19T11:41:30;7.93;;;2.00;;
27572;SDS011;15009;53.082;8.768;2022-08-19T11:44:30;3.00;;;1.97;;
27572;SDS011;15009;53.082;8.768;2022-08-19T11:47:31;3.77;;;1.80;;
27572;SDS011;15009;53.082;8.768;2022-08-19T11:50:32;6.30;;;1.50;;
27572;SDS011;15009;53.082;8.768;2022-08-19T11:53:33;28.27;;;23.83;;
27572;SDS011;15009;53.082;8.768;2022-08-19T11:56:34;4.72;;;2.95;;
27572;SDS011;15009;53.082;8.768;2022-08-19T11:59:36;3.00;;;1.73;;
27572;SDS011;15009;53.082;8.768;2022-08-19T12:02:40;5.47;;;1.73;;
27572;SDS011;15009;53.082;8.768;2022-08-19T12:05:41;3.27;;;1.50;;
27572;SDS011;15009;53.082;8.768;2022-08-19T12:08:42;2.27;;;1.40;;
27572;SDS011;15009;53.082;8.768;2022-08-19T12:11:43;5.03;;;1.80;;
27572;SDS011;15009;53.082;8.768;2022-08-19T12:14:44;3.27;;;1.53;;
27572;SDS011;15009;53.082;8.768;2022-08-19T12:17:46;3.30;;;1.63;;
27572;SDS011;15009;53.082;8.768;2022-08-19T12:20:47;4.10;;;1.37;;
27572;SDS011;15009;53.082;8.768;2022-08-19T12:23:48;3.07;;;1.77;;
27572;SDS011;15009;53.082;8.768;2022-08-19T12:26:51;6.03;;;1.52;;
27572;SDS011;15009;53.082;8.768;2022-08-19T12:29:53;2.28;;;1.33;;
27572;SDS011;15009;53.082;8.768;2022-08-19T12:32:54;2.63;;;1.63;;
27572;SDS011;15009;53.082;8.768;2022-08-19T12:35:54;1.90;;;1.50;;
27572;SDS011;15009;53.082;8.768;2022-08-19T12:38:59;2.35;;;1.30;;
27572;SDS011;15009;53.082;8.768;2022-08-19T12:42:00;3.57;;;1.57;;
27572;SDS011;15009;53.082;8.768;2022-08-19T12:45:01;5.57;;;1.67;;
27572;SDS011;15009;53.082;8.768;2022-08-19T12:48:01;3.13;;;1.53;;
27572;SDS011;15009;53.082;8.768;2022-08-19T12:51:06;19.80;;;14.93;;
27572;SDS011;15009;53.082;8.768;2022-08-19T12:54:09;4.25;;;2.90;;
27572;SDS011;15009;53.082;8.768;2022-08-19T12:57:10;8.87;;;4.30;;
27572;SDS011;15009;53.082;8.768;2022-08-19T13:00:12;2.33;;;1.80;;
27572;SDS011;15009;53.082;8.768;2022-08-19T13:03:15;4.72;;;3.20;;
27572;SDS011;15009;53.082;8.768;2022-08-19T13:06:16;2.60;;;1.60;;
27572;SDS011;15009;53.082;8.768;2022-08-19T13:09:17;6.80;;;2.33;;
27572;SDS011;15009;53.082;8.768;2022-08-19T13:12:18;2.47;;;1.57;;
27572;SDS011;15009;53.082;8.768;2022-08-19T13:15:21;1.85;;;1.10;;
27572;SDS011;15009;53.082;8.768;2022-08-19T13:18:22;5.00;;;1.42;;
27572;SDS011;15009;53.082;8.768;2022-08-19T13:21:24;3.38;;;1.30;;
27572;SDS011;15009;53.082;8.768;2022-08-19T13:24:27;6.97;;;1.50;;
27572;SDS011;15009;53.082;8.768;2022-08-19T13:27:28;2.03;;;1.10;;
27572;SDS011;15009;53.082;8.768;2022-08-19T13:30:29;4.20;;;1.50;;
27572;SDS011;15009;53.082;8.768;2022-08-19T13:33:48;2.28;;;1.60;;
27572;SDS011;15009;53.082;8.768;2022-08-19T13:36:49;3.57;;;1.67;;
27572;SDS011;15009;53.082;8.768;2022-08-19T13:39:51;3.55;;;1.40;;
27572;SDS011;15009;53.082;8.768;2022-08-19T13:42:53;9.47;;;7.30;;
27572;SDS011;15009;53.082;8.768;2022-08-19T13:45:54;1.50;;;1.30;;
27572;SDS011;15009;53.082;8.768;2022-08-19T13:48:56;5.90;;;1.50;;
27572;SDS011;15009;53.082;8.768;2022-08-19T13:51:57;2.80;;;1.63;;
27572;SDS011;15009;53.082;8.768;2022-08-19T13:54:57;6.10;;;2.47;;
27572;SDS011;15009;53.082;8.768;2022-08-19T13:57:59;5.03;;;2.70;;
27572;SDS011;15009;53.082;8.768;2022-08-19T14:01:01;9.57;;;4.93;;
27572;SDS011;15009;53.082;8.768;2022-08-19T14:04:02;3.63;;;2.77;;
27572;SDS011;15009;53.082;8.768;2022-08-19T14:07:05;3.55;;;1.60;;
27572;SDS011;15009;53.082;8.768;2022-08-19T14:10:06;2.30;;;1.60;;
27572;SDS011;15009;53.082;8.768;2022-08-19T14:13:09;5.47;;;3.75;;
27572;SDS011;15009;53.082;8.768;2022-08-19T14:16:10;2.03;;;1.40;;
27572;SDS011;15009;53.082;8.768;2022-08-19T14:19:12;3.65;;;1.70;;
27572;SDS011;15009;53.082;8.768;2022-08-19T14:22:13;8.60;;;2.20;;
27572;SDS011;15009;53.082;8.768;2022-08-19T14:25:16;2.70;;;1.70;;
27572;SDS011;15009;53.082;8.768;2022-08-19T14:28:18;2.67;;;1.95;;
27572;SDS011;15009;53.082;8.768;2022-08-19T14:31:19;2.57;;;1.60;;
27572;SDS011;15009;53.082;8.768;2022-08-19T14:37:22;2.85;;;1.80;;
27572;SDS011;15009;53.082;8.768;2022-08-19T14:40:24;3.07;;;1.83;;
27572;SDS011;15009;53.082;8.768;2022-08-19T14:43:26;2.03;;;1.80;;
27572;SDS011;15009;53.082;8.768;2022-08-19T14:46:27;2.43;;;1.83;;
27572;SDS011;15009;53.082;8.768;2022-08-19T14:49:28;2.65;;;1.73;;
27572;SDS011;15009;53.082;8.768;2022-08-19T14:52:29;2.00;;;1.80;;
27572;SDS011;15009;53.082;8.768;2022-08-19T14:55:30;2.03;;;1.60;;
27572;SDS011;15009;53.082;8.768;2022-08-19T15:01:32;2.88;;;2.20;;
27572;SDS011;15009;53.082;8.768;2022-08-19T15:04:32;3.33;;;2.70;;
27572;SDS011;15009;53.082;8.768;2022-08-19T15:07:33;2.67;;;2.03;;
27572;SDS011;15009;53.082;8.768;2022-08-19T15:10:33;3.47;;;1.73;;
27572;SDS011;15009;53.082;8.768;2022-08-19T15:13:34;3.10;;;1.80;;
27572;SDS011;15009;53.082;8.768;2022-08-19T15:16:35;4.85;;;3.78;;
27572;SDS011;15009;53.082;8.768;2022-08-19T15:19:39;24.55;;;20.55;;
27572;SDS011;15009;53.082;8.768;2022-08-19T15:22:40;2.87;;;2.20;;
27572;SDS011;15009;53.082;8.768;2022-08-19T15:25:41;4.35;;;1.88;;
27572;SDS011;15009;53.082;8.768;2022-08-19T15:28:43;3.08;;;2.00;;
27572;SDS011;15009;53.082;8.768;2022-08-19T15:31:44;4.23;;;2.20;;
27572;SDS011;15009;53.082;8.768;2022-08-19T15:34:44;2.53;;;2.00;;
27572;SDS011;15009;53.082;8.768;2022-08-19T15:37:49;3.92;;;3.38;;
27572;SDS011;15009;53.082;8.768;2022-08-19T15:40:50;12.07;;;8.00;;
27572;SDS011;15009;53.082;8.768;2022-08-19T15:43:56;7.23;;;5.70;;
27572;SDS011;15009;53.082;8.768;2022-08-19T15:46:59;9.52;;;7.03;;
27572;SDS011;15009;53.082;8.768;2022-08-19T15:50:02;6.80;;;4.20;;
27572;SDS011;15009;53.082;8.768;2022-08-19T15:53:09;6.13;;;3.15;;
27572;SDS011;15009;53.082;8.768;2022-08-19T15:59:10;6.22;;;2.28;;
27572;SDS011;15009;53.082;8.768;2022-08-19T16:02:31;5.10;;;2.53;;
27572;SDS011;15009;53.082;8.768;2022-08-19T16:05:51;6.00;;;4.03;;
27572;SDS011;15009;53.082;8.768;2022-08-19T16:09:11;2.97;;;2.45;;
27572;SDS011;15009;53.082;8.768;2022-08-19T16:12:12;6.90;;;3.97;;
27572;SDS011;15009;53.082;8.768;2022-08-19T16:15:12;4.33;;;2.53;;
27572;SDS011;15009;53.082;8.768;2022-08-19T16:18:13;3.83;;;2.10;;
27572;SDS011;15009;53.082;8.768;2022-08-19T16:21:14;3.30;;;2.77;;
27572;SDS011;15009;53.082;8.768;2022-08-19T16:24:19;7.22;;;2.53;;
27572;SDS011;15009;53.082;8.768;2022-08-19T16:27:21;4.70;;;3.17;;
27572;SDS011;15009;53.082;8.768;2022-08-19T16:30:21;5.47;;;3.63;;
27572;SDS011;15009;53.082;8.768;2022-08-19T16:33:22;8.90;;;4.93;;
27572;SDS011;15009;53.082;8.768;2022-08-19T16:36:23;6.00;;;4.30;;
27572;SDS011;15009;53.082;8.768;2022-08-19T16:39:24;4.27;;;3.10;;
27572;SDS011;15009;53.082;8.768;2022-08-19T16:42:25;4.72;;;2.70;;
27572;SDS011;15009;53.082;8.768;2022-08-19T16:45:25;3.37;;;3.07;;
27572;SDS011;15009;53.082;8.768;2022-08-19T16:48:27;7.85;;;5.32;;
27572;SDS011;15009;53.082;8.768;2022-08-19T16:51:29;9.68;;;5.88;;
27572;SDS011;15009;53.082;8.768;2022-08-19T16:54:31;7.80;;;5.32;;
27572;SDS011;15009;53.082;8.768;2022-08-19T16:57:31;9.73;;;4.50;;
27572;SDS011;15009;53.082;8.768;2022-08-19T17:00:32;5.32;;;3.80;;
27572;SDS011;15009;53.082;8.768;2022-08-19T17:03:33;9.00;;;3.90;;
27572;SDS011;15009;53.082;8.768;2022-08-19T17:06:34;9.90;;;5.18;;
27572;SDS011;15009;53.082;8.768;2022-08-19T17:12:36;9.13;;;3.30;;
27572;SDS011;15009;53.082;8.768;2022-08-19T17:15:37;5.10;;;2.65;;
27572;SDS011;15009;53.082;8.768;2022-08-19T17:18:38;2.75;;;2.50;;
27572;SDS011;15009;53.082;8.768;2022-08-19T17:21:38;7.10;;;3.27;;
27572;SDS011;15009;53.082;8.768;2022-08-19T17:24:39;6.60;;;3.13;;
27572;SDS011;15009;53.082;8.768;2022-08-19T17:27:40;8.33;;;5.20;;
27572;SDS011;15009;53.082;8.768;2022-08-19T17:30:41;11.73;;;5.28;;
27572;SDS011;15009;53.082;8.768;2022-08-19T17:33:42;6.10;;;4.10;;
27572;SDS011;15009;53.082;8.768;2022-08-19T17:36:42;33.10;;;26.53;;
27572;SDS011;15009;53.082;8.768;2022-08-19T17:39:43;9.87;;;7.30;;
27572;SDS011;15009;53.082;8.768;2022-08-19T17:42:44;3.22;;;2.40;;
27572;SDS011;15009;53.082;8.768;2022-08-19T17:45:45;2.83;;;1.90;;
27572;SDS011;15009;53.082;8.768;2022-08-19T17:48:47;3.53;;;2.42;;
27572;SDS011;15009;53.082;8.768;2022-08-19T17:51:49;3.05;;;2.40;;
27572;SDS011;15009;53.082;8.768;2022-08-19T17:54:51;4.33;;;2.70;;
27572;SDS011;15009;53.082;8.768;2022-08-19T17:57:51;3.38;;;2.33;;
27572;SDS011;15009;53.082;8.768;2022-08-19T18:00:52;2.58;;;1.90;;
27572;SDS011;15009;53.082;8.768;2022-08-19T18:03:54;4.40;;;1.98;;
27572;SDS011;15009;53.082;8.768;2022-08-19T18:06:55;2.97;;;1.83;;
27572;SDS011;15009;53.082;8.768;2022-08-19T18:09:55;3.15;;;2.38;;
27572;SDS011;15009;53.082;8.768;2022-08-19T18:12:56;2.05;;;1.85;;
27572;SDS011;15009;53.082;8.768;2022-08-19T18:15:58;5.28;;;2.10;;
27572;SDS011;15009;53.082;8.768;2022-08-19T18:18:58;2.92;;;1.92;;
27572;SDS011;15009;53.082;8.768;2022-08-19T18:21:59;2.95;;;2.08;;
27572;SDS011;15009;53.082;8.768;2022-08-19T18:25:00;2.95;;;2.47;;
27572;SDS011;15009;53.082;8.768;2022-08-19T18:28:03;5.13;;;2.20;;
27572;SDS011;15009;53.082;8.768;2022-08-19T18:31:05;4.57;;;2.15;;
27572;SDS011;15009;53.082;8.768;2022-08-19T18:34:06;2.38;;;2.17;;
27572;SDS011;15009;53.082;8.768;2022-08-19T18:37:17;5.13;;;2.45;;
27572;SDS011;15009;53.082;8.768;2022-08-19T18:40:19;4.38;;;2.40;;